Time;durP1;ratioP1;P1;durP2;ratioP2;P2;SDS_P1;SDS_P2;PMS_P1;PMS_P2;Temp;Humidity;BMP_temperature;BMP_pressure;BME280_temperature;BME280_humidity;BME280_pressure;Samples;Min_cycle;Max_cycle;Signal;HPM_P1;HPM_P2
2022/05/12 00:04:23;;;;;;;8.73;4.50;;;;;;;;;;10489872;28;20024;-68
2022/05/12 00:09:23;;;;;;;7.28;5.25;;;;;;;;;;10490332;28;20274;-69
2022/05/12 00:14:24;;;;;;;6.27;4.27;;;;;;;;;;10472200;28;20028;-69
2022/05/12 00:19:26;;;;;;;8.13;4.45;;;;;;;;;;10489860;28;20306;-69
2022/05/12 00:24:26;;;;;;;6.05;4.25;;;;;;;;;;10472215;28;20025;-74
2022/05/12 00:29:26;;;;;;;6.63;4.40;;;;;;;;;;10488323;28;20032;-70
2022/05/12 00:34:27;;;;;;;10.97;5.13;;;;;;;;;;10488713;28;20035;-69
2022/05/12 00:39:27;;;;;;;6.20;4.85;;;;;;;;;;10487809;28;20044;-74
2022/05/12 00:44:27;;;;;;;6.22;4.70;;;;;;;;;;10487527;28;20020;-73
2022/05/12 00:49:27;;;;;;;7.53;4.07;;;;;;;;;;10471013;28;20027;-71
2022/05/12 00:54:28;;;;;;;9.23;5.57;;;;;;;;;;10471223;28;20123;-70
2022/05/12 00:59:30;;;;;;;8.05;4.93;;;;;;;;;;10470565;28;20024;-76
2022/05/12 01:04:31;;;;;;;8.13;5.07;;;;;;;;;;10470683;28;20036;-71
2022/05/12 01:09:31;;;;;;;8.38;4.38;;;;;;;;;;10469731;28;20028;-69
2022/05/12 01:14:32;;;;;;;5.88;4.63;;;;;;;;;;10486255;28;20029;-70
2022/05/12 01:19:34;;;;;;;8.85;4.68;;;;;;;;;;10486128;28;20048;-70
2022/05/12 01:24:36;;;;;;;5.50;3.92;;;;;;;;;;10469522;28;20139;-77
2022/05/12 01:29:36;;;;;;;5.85;4.35;;;;;;;;;;10469205;28;20020;-70
2022/05/12 01:34:36;;;;;;;10.27;4.03;;;;;;;;;;10469198;28;20051;-72
2022/05/12 01:39:37;;;;;;;7.63;4.83;;;;;;;;;;10485828;28;20416;-70
2022/05/12 01:44:37;;;;;;;8.77;4.38;;;;;;;;;;10485548;28;20350;-72
2022/05/12 01:49:38;;;;;;;4.97;4.47;;;;;;;;;;10468707;28;20482;-69
2022/05/12 01:54:38;;;;;;;10.13;5.45;;;;;;;;;;10485793;28;20016;-69
2022/05/12 01:59:39;;;;;;;6.68;4.68;;;;;;;;;;10468559;28;20025;-73
2022/05/12 02:04:39;;;;;;;7.13;5.20;;;;;;;;;;10485168;28;20020;-73
2022/05/12 02:09:39;;;;;;;5.20;4.60;;;;;;;;;;10484843;28;20024;-70
2022/05/12 02:14:40;;;;;;;16.70;5.50;;;;;;;;;;10486151;28;20032;-71
2022/05/12 02:19:40;;;;;;;10.68;5.22;;;;;;;;;;10468029;28;20049;-70
2022/05/12 02:24:40;;;;;;;12.38;4.97;;;;;;;;;;10467872;28;20016;-73
2022/05/12 02:29:41;;;;;;;11.55;4.55;;;;;;;;;;10486232;28;20096;-75
2022/05/12 02:34:41;;;;;;;15.00;4.80;;;;;;;;;;10467735;28;20630;-74
2022/05/12 02:39:42;;;;;;;7.73;4.70;;;;;;;;;;10484434;28;20316;-70
2022/05/12 02:44:42;;;;;;;6.38;4.70;;;;;;;;;;10467168;28;20013;-70
2022/05/12 02:49:42;;;;;;;6.03;4.80;;;;;;;;;;10467869;28;20484;-70
2022/05/12 02:54:43;;;;;;;8.90;5.10;;;;;;;;;;10467791;28;20020;-69
2022/05/12 02:59:43;;;;;;;13.57;5.33;;;;;;;;;;10487832;28;20075;-73
2022/05/12 03:04:43;;;;;;;7.45;5.22;;;;;;;;;;10474881;28;20017;-68
2022/05/12 03:09:43;;;;;;;8.35;5.40;;;;;;;;;;10492515;28;20021;-73
2022/05/12 03:14:44;;;;;;;10.90;5.25;;;;;;;;;;10474407;28;20021;-72
2022/05/12 03:19:44;;;;;;;6.03;5.10;;;;;;;;;;10491154;28;20045;-70
2022/05/12 03:24:44;;;;;;;10.30;5.50;;;;;;;;;;10491034;28;20107;-70
2022/05/12 03:29:44;;;;;;;9.20;5.50;;;;;;;;;;10490316;28;20032;-75
2022/05/12 03:34:45;;;;;;;9.07;5.70;;;;;;;;;;10473577;28;20029;-73
2022/05/12 03:39:45;;;;;;;10.40;5.97;;;;;;;;;;10473147;28;20016;-70
2022/05/12 03:44:47;;;;;;;9.63;5.30;;;;;;;;;;10490097;28;20118;-70
2022/05/12 03:49:48;;;;;;;15.90;5.68;;;;;;;;;;10464745;28;20029;-74
2022/05/12 03:54:48;;;;;;;8.70;5.72;;;;;;;;;;10433975;28;20484;-73
2022/05/12 03:59:49;;;;;;;11.27;7.23;;;;;;;;;;10468661;28;20025;-71
2022/05/12 04:04:49;;;;;;;8.90;5.72;;;;;;;;;;10471522;28;20032;-73
2022/05/12 04:09:50;;;;;;;14.13;6.07;;;;;;;;;;10468925;28;20476;-73
2022/05/12 04:14:50;;;;;;;10.13;6.30;;;;;;;;;;10486509;28;20278;-70
2022/05/12 04:19:52;;;;;;;9.13;6.33;;;;;;;;;;10468458;28;20051;-69
2022/05/12 04:24:54;;;;;;;10.73;6.95;;;;;;;;;;10487464;28;20032;-69
2022/05/12 04:29:55;;;;;;;12.75;6.82;;;;;;;;;;10471072;28;20202;-69
2022/05/12 04:35:14;;;;;;;15.27;7.17;;;;;;;;;;10470485;28;20605;-69
2022/05/12 04:40:16;;;;;;;15.02;8.73;;;;;;;;;;10469899;28;20124;-70
2022/05/12 04:45:18;;;;;;;17.88;8.32;;;;;;;;;;10470190;28;20450;-70
2022/05/12 04:50:26;;;;;;;13.15;8.52;;;;;;;;;;10470025;28;20032;-70
2022/05/12 04:55:26;;;;;;;17.73;8.15;;;;;;;;;;10488423;28;20035;-72
2022/05/12 05:00:32;;;;;;;11.65;6.63;;;;;;;;;;10493737;28;20035;-69
2022/05/12 05:05:32;;;;;;;10.77;7.13;;;;;;;;;;10498210;28;20023;-70
2022/05/12 05:10:33;;;;;;;12.83;6.57;;;;;;;;;;10448931;28;20033;-72
2022/05/12 05:15:34;;;;;;;14.75;7.38;;;;;;;;;;10447086;28;20642;-73
2022/05/12 05:20:35;;;;;;;11.80;7.82;;;;;;;;;;10443435;28;20094;-70
2022/05/12 05:25:35;;;;;;;10.98;5.05;;;;;;;;;;10426922;28;20808;-69
2022/05/12 05:30:35;;;;;;;8.07;5.00;;;;;;;;;;10410355;28;20479;-73
2022/05/12 05:35:36;;;;;;;7.00;5.38;;;;;;;;;;10426639;28;20028;-72
2022/05/12 05:40:36;;;;;;;11.63;5.65;;;;;;;;;;10426655;28;20115;-73
2022/05/12 05:45:37;;;;;;;14.45;4.40;;;;;;;;;;10442630;28;20031;-73
2022/05/12 05:55:58;;;;;;;8.25;5.43;;;;;;;;;;10444359;28;20025;-70
2022/05/12 06:00:58;;;;;;;12.30;5.32;;;;;;;;;;10409840;28;20036;-76
2022/05/12 06:05:58;;;;;;;14.13;4.43;;;;;;;;;;10426690;28;20036;-68
2022/05/12 06:11:03;;;;;;;12.38;4.43;;;;;;;;;;10426669;28;20024;-75
2022/05/12 06:16:05;;;;;;;8.25;4.95;;;;;;;;;;10425640;28;20017;-68
2022/05/12 06:21:05;;;;;;;7.53;4.05;;;;;;;;;;10426154;28;20045;-69
2022/05/12 06:26:15;;;;;;;13.77;4.28;;;;;;;;;;10425306;28;20020;-69
2022/05/12 06:31:24;;;;;;;9.85;4.72;;;;;;;;;;10426411;28;20077;-72
2022/05/12 06:36:24;;;;;;;6.93;4.18;;;;;;;;;;10432942;28;20033;-69
2022/05/12 06:41:26;;;;;;;15.43;6.55;;;;;;;;;;10452055;28;20043;-69
2022/05/12 06:46:26;;;;;;;12.63;4.78;;;;;;;;;;10433834;28;20029;-69
2022/05/12 06:51:27;;;;;;;11.07;5.67;;;;;;;;;;10416580;28;20025;-68
2022/05/12 06:56:28;;;;;;;8.13;5.63;;;;;;;;;;10433489;28;20124;-68
2022/05/12 07:01:29;;;;;;;11.73;6.13;;;;;;;;;;10433525;28;20033;-71
2022/05/12 07:06:29;;;;;;;15.13;5.03;;;;;;;;;;10433037;28;20082;-71
2022/05/12 07:11:29;;;;;;;14.87;5.37;;;;;;;;;;10433348;28;20033;-72
2022/05/12 07:16:30;;;;;;;19.00;5.25;;;;;;;;;;10432450;28;20036;-72
2022/05/12 07:26:50;;;;;;;13.07;5.57;;;;;;;;;;10491873;28;20025;-69
2022/05/12 07:31:50;;;;;;;17.15;5.15;;;;;;;;;;10473622;28;20031;-72
2022/05/12 07:36:51;;;;;;;11.63;5.13;;;;;;;;;;10472853;28;20038;-67
2022/05/12 07:41:53;;;;;;;11.93;4.93;;;;;;;;;;10473127;28;20029;-68
2022/05/12 07:46:53;;;;;;;9.77;4.15;;;;;;;;;;10488420;28;20043;-69
2022/05/12 07:51:53;;;;;;;22.02;4.47;;;;;;;;;;10473047;28;20059;-68
2022/05/12 07:56:54;;;;;;;11.70;4.40;;;;;;;;;;10471899;28;20032;-72
2022/05/12 08:01:54;;;;;;;14.50;5.68;;;;;;;;;;10496614;28;20318;-70
2022/05/12 08:06:55;;;;;;;8.37;4.77;;;;;;;;;;10471918;28;20109;-73
2022/05/12 08:11:55;;;;;;;12.33;4.17;;;;;;;;;;10471775;28;20274;-67
2022/05/12 08:16:56;;;;;;;17.65;5.32;;;;;;;;;;10488323;28;20052;-70
2022/05/12 08:21:56;;;;;;;13.18;4.40;;;;;;;;;;10471423;28;20112;-67
2022/05/12 08:26:56;;;;;;;12.17;3.87;;;;;;;;;;10489348;28;20107;-71
2022/05/12 08:31:57;;;;;;;9.35;4.35;;;;;;;;;;10487787;28;20050;-69
2022/05/12 08:36:57;;;;;;;6.15;3.63;;;;;;;;;;10471107;28;20021;-67
2022/05/12 08:41:59;;;;;;;6.37;3.80;;;;;;;;;;10470256;28;20976;-75
2022/05/12 08:47:02;;;;;;;10.65;3.70;;;;;;;;;;10489228;28;20021;-67
2022/05/12 08:52:21;;;;;;;4.80;3.13;;;;;;;;;;10475279;28;20025;-75
2022/05/12 08:57:28;;;;;;;10.80;4.03;;;;;;;;;;10472604;28;20024;-67
2022/05/12 09:02:35;;;;;;;8.65;2.78;;;;;;;;;;10469889;28;20055;-73
2022/05/12 09:07:57;;;;;;;5.65;2.35;;;;;;;;;;10470369;28;20024;-76
2022/05/12 09:13:01;;;;;;;5.68;2.80;;;;;;;;;;10452328;28;20024;-68
2022/05/12 09:18:02;;;;;;;4.75;2.85;;;;;;;;;;10469329;28;20059;-68
2022/05/12 09:23:04;;;;;;;4.95;2.40;;;;;;;;;;10468646;28;20017;-69
2022/05/12 09:28:13;;;;;;;6.43;2.97;;;;;;;;;;10486650;28;20032;-69
2022/05/12 09:33:21;;;;;;;3.15;1.98;;;;;;;;;;10451823;28;20515;-69
2022/05/12 09:38:23;;;;;;;8.05;2.00;;;;;;;;;;10468190;28;20020;-72
2022/05/12 09:43:31;;;;;;;10.35;2.60;;;;;;;;;;10467865;28;20048;-70
2022/05/12 09:48:36;;;;;;;5.70;2.10;;;;;;;;;;10467857;28;20105;-69
2022/05/12 09:53:37;;;;;;;2.25;1.83;;;;;;;;;;10485656;28;20016;-69
2022/05/12 09:58:41;;;;;;;2.60;2.25;;;;;;;;;;10468429;28;20031;-69
2022/05/12 10:09:09;;;;;;;4.50;2.03;;;;;;;;;;10497395;28;20024;-76
2022/05/12 10:14:18;;;;;;;7.15;2.47;;;;;;;;;;10485313;28;20020;-69
2022/05/12 10:19:22;;;;;;;2.13;1.77;;;;;;;;;;10466871;28;20041;-69
2022/05/12 10:24:25;;;;;;;2.20;1.83;;;;;;;;;;10451227;28;20102;-72
2022/05/12 10:29:31;;;;;;;4.13;1.80;;;;;;;;;;10466990;28;20035;-71
2022/05/12 10:35:01;;;;;;;3.47;1.70;;;;;;;;;;10467712;28;20610;-73
2022/05/12 10:40:01;;;;;;;4.97;1.77;;;;;;;;;;10453741;28;20036;-69
2022/05/12 10:45:02;;;;;;;2.40;1.30;;;;;;;;;;10466831;28;20027;-73
2022/05/12 10:50:11;;;;;;;2.17;1.30;;;;;;;;;;10466843;28;20499;-68
2022/05/12 10:55:30;;;;;;;4.40;1.60;;;;;;;;;;10466309;28;20017;-72
2022/05/12 11:00:56;;;;;;;3.25;1.75;;;;;;;;;;10466760;28;20377;-68
2022/05/12 11:06:00;;;;;;;2.35;1.70;;;;;;;;;;10463763;28;20638;-70
2022/05/12 11:11:03;;;;;;;3.80;1.73;;;;;;;;;;10466557;28;20021;-75
2022/05/12 11:16:05;;;;;;;5.85;1.88;;;;;;;;;;10482611;28;20012;-72
2022/05/12 11:21:19;;;;;;;5.50;2.70;;;;;;;;;;10468940;28;20080;-69
2022/05/12 11:26:19;;;;;;;6.90;2.30;;;;;;;;;;10456854;28;20051;-71
2022/05/12 11:31:37;;;;;;;7.18;2.90;;;;;;;;;;10473578;28;20603;-70
2022/05/12 11:36:43;;;;;;;4.80;2.72;;;;;;;;;;10504654;28;20437;-69
2022/05/12 11:41:44;;;;;;;3.10;2.30;;;;;;;;;;10473500;28;20016;-69
2022/05/12 11:46:53;;;;;;;3.38;2.53;;;;;;;;;;10472585;28;20048;-69
2022/05/12 11:52:32;;;;;;;8.43;3.00;;;;;;;;;;10472892;28;20181;-72
2022/05/12 11:57:36;;;;;;;8.38;3.72;;;;;;;;;;10320645;28;20052;-70
2022/05/12 12:02:38;;;;;;;2.97;2.05;;;;;;;;;;10435902;28;20057;-67
2022/05/12 12:07:38;;;;;;;6.35;3.45;;;;;;;;;;10471822;28;20024;-69
2022/05/12 12:12:45;;;;;;;6.20;2.85;;;;;;;;;;10489812;28;20020;-69
2022/05/12 12:17:45;;;;;;;7.47;2.75;;;;;;;;;;10482753;28;20048;-70
2022/05/12 12:22:47;;;;;;;4.20;2.92;;;;;;;;;;10500676;28;20028;-69
2022/05/12 12:27:53;;;;;;;8.80;2.67;;;;;;;;;;10493011;28;20077;-76
2022/05/12 12:33:12;;;;;;;10.20;3.35;;;;;;;;;;10497543;28;20065;-70
2022/05/12 12:38:33;;;;;;;9.70;5.60;;;;;;;;;;10473963;28;20027;-70
2022/05/12 12:43:36;;;;;;;7.25;2.92;;;;;;;;;;10489769;28;20024;-72
2022/05/12 12:48:41;;;;;;;4.10;2.83;;;;;;;;;;10516024;28;20025;-74
2022/05/12 12:59:13;;;;;;;3.90;3.00;;;;;;;;;;10509839;28;20028;-72
2022/05/12 13:04:14;;;;;;;4.32;3.55;;;;;;;;;;10500741;28;20028;-73
2022/05/12 13:09:14;;;;;;;4.60;2.78;;;;;;;;;;10489006;28;20489;-69
2022/05/12 13:14:15;;;;;;;5.38;3.22;;;;;;;;;;10481552;28;20446;-70
2022/05/12 13:19:24;;;;;;;5.47;3.03;;;;;;;;;;10486301;28;20048;-71
2022/05/12 13:24:27;;;;;;;5.95;3.28;;;;;;;;;;10484747;28;20149;-68
2022/05/12 13:29:29;;;;;;;8.35;4.20;;;;;;;;;;10476821;28;20491;-73
2022/05/12 13:34:30;;;;;;;8.73;5.35;;;;;;;;;;10473461;28;20547;-72
2022/05/12 13:39:50;;;;;;;5.65;3.42;;;;;;;;;;10483521;28;20032;-75
2022/05/12 13:44:52;;;;;;;4.00;3.20;;;;;;;;;;10472987;28;20414;-72
2022/05/12 13:49:53;;;;;;;11.68;4.25;;;;;;;;;;10488317;28;20023;-72
2022/05/12 13:54:58;;;;;;;4.43;2.80;;;;;;;;;;10487031;28;20020;-72
2022/05/12 14:00:11;;;;;;;7.07;3.08;;;;;;;;;;10486176;28;20054;-75
2022/05/12 14:05:11;;;;;;;6.65;3.60;;;;;;;;;;10487076;28;20020;-71
2022/05/12 14:10:17;;;;;;;3.97;3.03;;;;;;;;;;10484070;28;20024;-74
2022/05/12 14:20:36;;;;;;;21.40;13.98;;;;;;;;;;10494972;28;20463;-74
2022/05/12 14:25:36;;;;;;;5.65;3.30;;;;;;;;;;10468427;28;20024;-70
2022/05/12 14:30:37;;;;;;;6.63;3.78;;;;;;;;;;10457641;28;20021;-70
2022/05/12 14:35:37;;;;;;;3.95;2.92;;;;;;;;;;10474805;28;20017;-76
2022/05/12 14:40:37;;;;;;;6.18;4.00;;;;;;;;;;10469863;28;20032;-77
2022/05/12 14:45:38;;;;;;;6.73;3.23;;;;;;;;;;10467704;28;20106;-73
2022/05/12 14:50:39;;;;;;;4.53;2.97;;;;;;;;;;10456170;28;20090;-71
2022/05/12 14:55:40;;;;;;;4.32;3.40;;;;;;;;;;10459288;28;20021;-69
2022/05/12 15:00:40;;;;;;;2.97;2.67;;;;;;;;;;10445187;28;20178;-76
2022/05/12 15:05:41;;;;;;;3.55;3.00;;;;;;;;;;10445429;28;20619;-73
2022/05/12 15:10:41;;;;;;;5.17;3.30;;;;;;;;;;10448780;28;20051;-70
2022/05/12 15:15:41;;;;;;;9.68;3.17;;;;;;;;;;10465103;28;20113;-72
2022/05/12 15:20:42;;;;;;;10.48;5.15;;;;;;;;;;10448304;28;20041;-70
2022/05/12 15:25:44;;;;;;;4.07;3.20;;;;;;;;;;10449211;28;20027;-73
2022/05/12 15:30:45;;;;;;;8.88;3.58;;;;;;;;;;10448215;28;20109;-76
2022/05/12 15:35:45;;;;;;;3.88;2.70;;;;;;;;;;10464182;28;20405;-73
2022/05/12 15:40:46;;;;;;;8.27;3.37;;;;;;;;;;10449544;28;20033;-70
2022/05/12 15:45:46;;;;;;;6.28;3.10;;;;;;;;;;10449257;28;20025;-78
2022/05/12 15:50:48;;;;;;;9.30;4.15;;;;;;;;;;10431482;28;20025;-71
2022/05/12 15:55:48;;;;;;;4.82;3.13;;;;;;;;;;10430806;28;20112;-74
2022/05/12 16:00:49;;;;;;;11.07;3.67;;;;;;;;;;10447119;28;20078;-70
2022/05/12 16:05:49;;;;;;;8.65;4.20;;;;;;;;;;10446281;28;20108;-70
2022/05/12 16:10:55;;;;;;;8.00;3.55;;;;;;;;;;10446730;28;20433;-75
2022/05/12 16:15:56;;;;;;;3.30;2.83;;;;;;;;;;10462232;28;20023;-71
2022/05/12 16:20:56;;;;;;;7.68;3.08;;;;;;;;;;10446747;28;20045;-71
2022/05/12 16:25:58;;;;;;;4.43;3.10;;;;;;;;;;10447355;28;20028;-74
2022/05/12 16:30:58;;;;;;;9.25;3.30;;;;;;;;;;10446119;28;20025;-71
2022/05/12 16:35:59;;;;;;;9.63;4.65;;;;;;;;;;10445854;28;20017;-72
2022/05/12 16:40:59;;;;;;;4.78;2.95;;;;;;;;;;10446150;28;20021;-73
2022/05/12 16:46:00;;;;;;;6.50;3.17;;;;;;;;;;10446840;28;20086;-72
2022/05/12 16:51:00;;;;;;;6.03;3.58;;;;;;;;;;10445096;28;20025;-75
2022/05/12 16:56:00;;;;;;;8.82;3.70;;;;;;;;;;10461730;28;20032;-70
2022/05/12 17:01:01;;;;;;;7.72;3.83;;;;;;;;;;10445057;28;20024;-70
2022/05/12 17:06:01;;;;;;;5.97;3.80;;;;;;;;;;10444969;28;20025;-71
2022/05/12 17:11:07;;;;;;;9.57;4.68;;;;;;;;;;10451549;28;20032;-74
2022/05/12 17:16:08;;;;;;;8.63;4.93;;;;;;;;;;10443464;28;20017;-70
2022/05/12 17:21:10;;;;;;;11.37;4.67;;;;;;;;;;10457253;28;20057;-70
2022/05/12 17:26:11;;;;;;;14.40;4.85;;;;;;;;;;10464139;28;20278;-73
2022/05/12 17:31:11;;;;;;;7.97;4.53;;;;;;;;;;10484910;28;20047;-74
2022/05/12 17:36:12;;;;;;;8.52;4.82;;;;;;;;;;10476869;28;20524;-71
2022/05/12 17:41:12;;;;;;;4.77;3.57;;;;;;;;;;10485169;28;20024;-72
2022/05/12 17:46:13;;;;;;;9.37;4.20;;;;;;;;;;10466761;28;20039;-71
2022/05/12 17:51:13;;;;;;;15.93;5.70;;;;;;;;;;10459126;28;20052;-74
2022/05/12 17:56:14;;;;;;;12.05;4.20;;;;;;;;;;10485458;28;20108;-72
2022/05/12 18:01:14;;;;;;;7.80;4.30;;;;;;;;;;10464745;28;20057;-77
2022/05/12 18:06:19;;;;;;;5.87;4.00;;;;;;;;;;10485175;28;20032;-69
2022/05/12 18:11:23;;;;;;;11.82;5.60;;;;;;;;;;10448565;28;20029;-75
2022/05/12 18:16:23;;;;;;;11.60;4.75;;;;;;;;;;10465203;28;20028;-70
2022/05/12 18:21:23;;;;;;;6.85;5.05;;;;;;;;;;10483505;28;20048;-70
2022/05/12 18:26:25;;;;;;;14.45;5.00;;;;;;;;;;10465990;28;20090;-70
2022/05/12 18:31:25;;;;;;;10.65;5.45;;;;;;;;;;10490749;28;20085;-70
2022/05/12 18:36:26;;;;;;;9.80;6.07;;;;;;;;;;10492237;28;20073;-73
2022/05/12 18:41:28;;;;;;;11.23;6.30;;;;;;;;;;10479157;28;20496;-73
2022/05/12 18:46:33;;;;;;;17.35;5.85;;;;;;;;;;10475788;28;20039;-75
2022/05/12 18:51:33;;;;;;;15.02;6.13;;;;;;;;;;10456104;28;20024;-73
2022/05/12 18:56:33;;;;;;;16.08;6.15;;;;;;;;;;10458010;28;20055;-71
2022/05/12 19:01:34;;;;;;;16.30;7.57;;;;;;;;;;10475369;28;20482;-70
2022/05/12 19:06:34;;;;;;;7.78;5.60;;;;;;;;;;10492554;28;20088;-74
2022/05/12 19:11:35;;;;;;;11.60;5.38;;;;;;;;;;10479395;28;20028;-73
2022/05/12 19:16:35;;;;;;;12.02;5.05;;;;;;;;;;10463967;28;20112;-70
2022/05/12 19:21:35;;;;;;;8.57;5.50;;;;;;;;;;10496765;28;20048;-70
2022/05/12 19:26:36;;;;;;;8.95;4.90;;;;;;;;;;10450076;28;20020;-70
2022/05/12 19:31:36;;;;;;;23.35;6.40;;;;;;;;;;10449957;28;20057;-70
2022/05/12 19:36:37;;;;;;;13.38;6.25;;;;;;;;;;10450174;28;20024;-70
2022/05/12 19:41:37;;;;;;;13.40;6.23;;;;;;;;;;10449314;28;20087;-74
2022/05/12 19:46:37;;;;;;;13.13;6.70;;;;;;;;;;10464100;28;20526;-69
2022/05/12 19:51:37;;;;;;;10.77;5.43;;;;;;;;;;10448424;28;20101;-70
2022/05/12 19:56:38;;;;;;;11.87;6.47;;;;;;;;;;10464158;28;20017;-71
2022/05/12 20:01:40;;;;;;;16.55;6.78;;;;;;;;;;10447836;28;20029;-73
2022/05/12 20:06:40;;;;;;;9.43;6.70;;;;;;;;;;10447289;28;20676;-71
2022/05/12 20:11:41;;;;;;;11.07;5.75;;;;;;;;;;10464780;28;20029;-69
2022/05/12 20:16:41;;;;;;;10.90;6.10;;;;;;;;;;10448199;28;20039;-70
2022/05/12 20:21:41;;;;;;;11.35;6.75;;;;;;;;;;10490154;28;20102;-71
2022/05/12 20:26:41;;;;;;;13.67;6.83;;;;;;;;;;10471176;28;20024;-73
2022/05/12 20:31:42;;;;;;;10.02;5.88;;;;;;;;;;10488025;28;20024;-69
2022/05/12 20:36:42;;;;;;;10.48;5.70;;;;;;;;;;10470692;28;20039;-70
2022/05/12 20:41:44;;;;;;;11.52;6.05;;;;;;;;;;10471214;28;20058;-74
2022/05/12 20:46:45;;;;;;;15.20;5.82;;;;;;;;;;10470570;28;20027;-70
2022/05/12 20:51:45;;;;;;;8.90;5.47;;;;;;;;;;10470157;28;20029;-69
2022/05/12 20:56:45;;;;;;;15.98;7.00;;;;;;;;;;10486750;28;20477;-70
2022/05/12 21:01:45;;;;;;;14.88;6.82;;;;;;;;;;10488133;28;20055;-70
2022/05/12 21:06:46;;;;;;;8.95;6.28;;;;;;;;;;10486147;28;20032;-69
2022/05/12 21:11:46;;;;;;;8.65;5.57;;;;;;;;;;10470196;28;20021;-73
2022/05/12 21:16:50;;;;;;;17.02;6.65;;;;;;;;;;10469247;28;20024;-73
2022/05/12 21:21:51;;;;;;;12.93;5.30;;;;;;;;;;10485802;28;20032;-70
2022/05/12 21:26:51;;;;;;;8.52;6.13;;;;;;;;;;10468800;28;20407;-73
2022/05/12 21:31:51;;;;;;;12.60;5.90;;;;;;;;;;10485553;28;20024;-69
2022/05/12 21:36:52;;;;;;;9.97;4.90;;;;;;;;;;10451911;28;20021;-68
2022/05/12 21:41:52;;;;;;;14.93;4.88;;;;;;;;;;10490673;28;20547;-73
2022/05/12 21:46:52;;;;;;;10.53;5.23;;;;;;;;;;10486775;28;20028;-75
2022/05/12 21:51:53;;;;;;;7.22;4.70;;;;;;;;;;10484639;28;20028;-69
2022/05/12 22:01:27;;;;;;;7.25;4.60;;;;;;;;;;10484120;28;20512;-68
2022/05/12 22:02:13;;;;;;;10.10;5.60;;;;;;;;;;10485002;28;20035;-70
2022/05/12 22:07:13;;;;;;;11.38;4.93;;;;;;;;;;10466346;28;20024;-70
2022/05/12 22:12:23;;;;;;;14.25;5.45;;;;;;;;;;10485815;28;20024;-71
2022/05/12 22:17:33;;;;;;;14.02;5.32;;;;;;;;;;10484867;28;20056;-70
2022/05/12 22:22:33;;;;;;;11.48;6.40;;;;;;;;;;10467701;28;20051;-72
2022/05/12 22:27:36;;;;;;;6.67;5.07;;;;;;;;;;10451159;28;20111;-70
2022/05/12 22:32:36;;;;;;;8.55;5.05;;;;;;;;;;10467114;28;20481;-71
2022/05/12 22:37:37;;;;;;;8.80;5.30;;;;;;;;;;10467579;28;20032;-70
2022/05/12 22:42:37;;;;;;;7.28;5.43;;;;;;;;;;10484213;28;20021;-70
2022/05/12 22:47:37;;;;;;;9.13;5.68;;;;;;;;;;10450466;28;20024;-69
2022/05/12 22:52:38;;;;;;;5.50;4.38;;;;;;;;;;10483389;28;20454;-70
2022/05/12 22:57:39;;;;;;;6.72;4.95;;;;;;;;;;10467713;28;20395;-73
2022/05/12 23:02:39;;;;;;;5.63;4.45;;;;;;;;;;10467172;28;20534;-71
2022/05/12 23:07:39;;;;;;;7.28;4.85;;;;;;;;;;10484046;28;20028;-69
2022/05/12 23:12:40;;;;;;;7.50;5.57;;;;;;;;;;10483981;28;20028;-70
2022/05/12 23:17:40;;;;;;;10.32;5.90;;;;;;;;;;10489280;28;20063;-69
2022/05/12 23:22:41;;;;;;;5.72;4.72;;;;;;;;;;10491836;28;20643;-74
2022/05/12 23:27:41;;;;;;;14.10;5.82;;;;;;;;;;10474093;28;20493;-69
2022/05/12 23:32:42;;;;;;;10.65;6.55;;;;;;;;;;10489900;28;20031;-72
2022/05/12 23:37:42;;;;;;;8.82;5.35;;;;;;;;;;10472710;28;20484;-69
2022/05/12 23:42:42;;;;;;;13.33;5.53;;;;;;;;;;10491245;28;20095;-69
2022/05/12 23:47:43;;;;;;;5.27;4.60;;;;;;;;;;10472970;28;20027;-68
2022/05/12 23:52:43;;;;;;;7.77;5.13;;;;;;;;;;10472577;28;20021;-69
2022/05/12 23:57:43;;;;;;;8.40;4.80;;;;;;;;;;10488938;28;20020;-72
